Time;durP1;ratioP1;P1;durP2;ratioP2;P2;SDS_P1;SDS_P2;PMS_P1;PMS_P2;Temp;Humidity;BMP_temperature;BMP_pressure;BME280_temperature;BME280_humidity;BME280_pressure;Samples;Min_cycle;Max_cycle;Signal;HPM_P1;HPM_P2
2023/09/18 00:00:46;;;;;;;6.70;5.50;;;;;;;;;;6290877;22;20639;-65
2023/09/18 00:03:14;;;;;;;5.87;5.23;;;;;;;;;;6290388;22;20598;-66
2023/09/18 00:05:44;;;;;;;13.43;5.60;;;;;;;;;;6289324;22;20619;-66
2023/09/18 00:08:12;;;;;;;7.60;5.60;;;;;;;;;;6290524;22;20635;-66
2023/09/18 00:10:40;;;;;;;6.23;5.20;;;;;;;;;;6290699;22;20640;-66
2023/09/18 00:13:09;;;;;;;7.20;5.03;;;;;;;;;;6290420;22;20648;-65
2023/09/18 00:15:38;;;;;;;7.33;5.80;;;;;;;;;;6289635;22;20608;-66
2023/09/18 00:18:06;;;;;;;11.63;6.10;;;;;;;;;;6290923;22;20626;-66
2023/09/18 00:20:35;;;;;;;8.40;5.90;;;;;;;;;;6290960;22;20593;-65
2023/09/18 00:23:05;;;;;;;8.20;5.73;;;;;;;;;;6290531;22;20601;-66
2023/09/18 00:25:33;;;;;;;6.70;5.43;;;;;;;;;;6290464;22;20950;-67
2023/09/18 00:28:01;;;;;;;7.33;5.70;;;;;;;;;;6291265;22;20601;-66
2023/09/18 00:30:31;;;;;;;5.70;5.10;;;;;;;;;;6290191;22;20597;-66
2023/09/18 00:32:59;;;;;;;6.70;4.90;;;;;;;;;;6290225;22;20612;-65
2023/09/18 00:35:27;;;;;;;5.27;4.67;;;;;;;;;;6263154;22;20590;-67
2023/09/18 00:37:56;;;;;;;8.90;5.57;;;;;;;;;;6290600;22;20636;-67
2023/09/18 00:40:25;;;;;;;7.17;6.10;;;;;;;;;;6264876;22;20602;-67
2023/09/18 00:42:53;;;;;;;13.47;5.87;;;;;;;;;;6289288;22;20604;-65
2023/09/18 00:45:23;;;;;;;10.80;5.60;;;;;;;;;;6290661;22;20581;-66
2023/09/18 00:47:51;;;;;;;8.20;5.90;;;;;;;;;;6262343;22;20586;-65
2023/09/18 00:50:19;;;;;;;9.20;5.77;;;;;;;;;;6290051;22;20616;-66
2023/09/18 00:52:48;;;;;;;8.37;5.97;;;;;;;;;;6237730;22;20593;-66
2023/09/18 00:55:18;;;;;;;6.97;6.17;;;;;;;;;;6264178;22;20594;-66
2023/09/18 00:57:47;;;;;;;7.87;5.37;;;;;;;;;;6289901;22;20597;-66
2023/09/18 01:00:16;;;;;;;6.30;5.70;;;;;;;;;;6262873;22;20637;-67
2023/09/18 01:02:45;;;;;;;6.83;6.13;;;;;;;;;;6245989;22;21169;-67
2023/09/18 01:05:16;;;;;;;9.07;5.30;;;;;;;;;;6273556;22;20660;-66
2023/09/18 01:07:45;;;;;;;6.20;5.50;;;;;;;;;;6222604;22;20629;-66
2023/09/18 01:10:15;;;;;;;6.73;5.47;;;;;;;;;;6275536;22;20656;-67
2023/09/18 01:12:46;;;;;;;8.47;6.17;;;;;;;;;;6273842;22;20688;-67
2023/09/18 01:15:18;;;;;;;5.10;4.70;;;;;;;;;;6274552;22;21287;-67
2023/09/18 01:17:47;;;;;;;5.60;5.13;;;;;;;;;;6247615;22;20667;-67
2023/09/18 01:20:15;;;;;;;6.83;5.40;;;;;;;;;;6274681;22;20704;-67
2023/09/18 01:22:45;;;;;;;7.90;5.17;;;;;;;;;;6274107;22;20665;-67
2023/09/18 01:25:13;;;;;;;7.90;4.90;;;;;;;;;;6274717;22;20660;-67
2023/09/18 01:27:42;;;;;;;7.30;5.43;;;;;;;;;;6274184;22;20661;-67
2023/09/18 01:30:10;;;;;;;9.70;4.87;;;;;;;;;;6275027;22;20657;-66
2023/09/18 01:32:40;;;;;;;5.53;4.70;;;;;;;;;;6247074;22;20983;-67
2023/09/18 01:35:09;;;;;;;7.90;5.30;;;;;;;;;;6274518;22;20664;-67
2023/09/18 01:37:39;;;;;;;10.50;5.20;;;;;;;;;;6274150;22;20660;-67
2023/09/18 01:40:11;;;;;;;9.50;5.33;;;;;;;;;;6274766;22;21000;-67
2023/09/18 01:42:39;;;;;;;5.07;4.57;;;;;;;;;;6274838;22;20625;-67
2023/09/18 01:45:08;;;;;;;18.73;5.27;;;;;;;;;;6246399;22;20661;-67
2023/09/18 01:47:36;;;;;;;6.10;4.93;;;;;;;;;;6273972;22;20656;-67
2023/09/18 01:50:06;;;;;;;6.10;4.60;;;;;;;;;;6273888;22;20657;-67
2023/09/18 01:52:34;;;;;;;6.60;4.97;;;;;;;;;;6247828;22;20731;-67
2023/09/18 01:55:04;;;;;;;7.20;5.73;;;;;;;;;;6274097;22;20665;-67
2023/09/18 01:57:34;;;;;;;7.13;5.07;;;;;;;;;;6274366;22;20652;-67
2023/09/18 02:00:07;;;;;;;9.07;4.80;;;;;;;;;;6274330;22;20697;-66
2023/09/18 02:02:40;;;;;;;6.90;5.70;;;;;;;;;;6273625;22;20672;-67
2023/09/18 02:05:09;;;;;;;8.47;5.23;;;;;;;;;;6246502;22;20688;-67
2023/09/18 02:07:37;;;;;;;7.70;5.00;;;;;;;;;;6274215;22;20668;-67
2023/09/18 02:10:06;;;;;;;7.33;5.07;;;;;;;;;;6274184;22;20648;-67
2023/09/18 02:12:36;;;;;;;6.10;4.77;;;;;;;;;;6273318;22;21006;-67
2023/09/18 02:15:06;;;;;;;9.00;4.70;;;;;;;;;;6247415;22;20622;-67
2023/09/18 02:17:34;;;;;;;13.80;4.80;;;;;;;;;;6274226;22;21197;-67
2023/09/18 02:20:05;;;;;;;12.30;5.70;;;;;;;;;;6274767;22;20696;-67
2023/09/18 02:22:33;;;;;;;8.00;5.00;;;;;;;;;;6246682;22;20943;-67
2023/09/18 02:25:01;;;;;;;8.83;4.80;;;;;;;;;;6274941;22;20680;-67
2023/09/18 02:27:30;;;;;;;8.10;5.60;;;;;;;;;;6246926;22;20702;-67
2023/09/18 02:30:00;;;;;;;7.50;4.90;;;;;;;;;;6273314;22;20653;-67
2023/09/18 02:32:28;;;;;;;9.63;5.43;;;;;;;;;;6273937;22;21200;-67
2023/09/18 02:34:56;;;;;;;8.27;5.90;;;;;;;;;;6273733;22;20707;-67
2023/09/18 02:37:24;;;;;;;9.60;4.77;;;;;;;;;;6222186;22;20970;-67
2023/09/18 02:39:53;;;;;;;8.83;6.40;;;;;;;;;;6273448;22;20700;-66
2023/09/18 02:42:22;;;;;;;16.83;6.37;;;;;;;;;;6247664;22;20686;-66
2023/09/18 02:44:50;;;;;;;10.20;5.10;;;;;;;;;;6273634;22;20673;-66
2023/09/18 02:47:20;;;;;;;17.27;5.70;;;;;;;;;;6221129;22;20657;-66
2023/09/18 02:49:48;;;;;;;6.73;5.43;;;;;;;;;;6272397;22;20998;-66
2023/09/18 02:52:16;;;;;;;8.37;5.67;;;;;;;;;;6246555;22;21030;-67
2023/09/18 02:54:45;;;;;;;9.10;5.70;;;;;;;;;;6272649;22;20689;-66
2023/09/18 02:57:13;;;;;;;7.57;5.90;;;;;;;;;;6274078;22;20961;-66
2023/09/18 02:59:42;;;;;;;13.13;5.83;;;;;;;;;;6219659;22;20688;-66
2023/09/18 03:02:10;;;;;;;8.93;5.67;;;;;;;;;;6245801;22;20696;-67
2023/09/18 03:04:40;;;;;;;9.73;5.20;;;;;;;;;;6271423;22;20702;-67
2023/09/18 03:07:08;;;;;;;8.43;5.60;;;;;;;;;;6273136;22;20661;-66
2023/09/18 03:09:37;;;;;;;10.23;5.70;;;;;;;;;;6272454;22;20573;-67
2023/09/18 03:12:05;;;;;;;9.30;6.20;;;;;;;;;;6273030;22;20712;-67
2023/09/18 03:14:34;;;;;;;6.97;5.80;;;;;;;;;;6271206;22;21247;-67
2023/09/18 03:17:02;;;;;;;15.60;5.60;;;;;;;;;;6246378;22;20947;-67
2023/09/18 03:19:30;;;;;;;12.27;7.00;;;;;;;;;;6245952;22;20709;-67
2023/09/18 03:22:00;;;;;;;13.10;6.23;;;;;;;;;;6246637;22;20649;-67
2023/09/18 03:24:28;;;;;;;7.80;5.93;;;;;;;;;;6245951;22;20692;-67
2023/09/18 03:26:56;;;;;;;11.30;6.23;;;;;;;;;;6273114;22;20656;-67
2023/09/18 03:29:25;;;;;;;10.90;6.67;;;;;;;;;;6246114;22;20653;-67
2023/09/18 03:31:55;;;;;;;9.23;5.90;;;;;;;;;;6274198;22;20653;-67
2023/09/18 03:34:26;;;;;;;8.90;6.33;;;;;;;;;;6274056;22;20633;-66
2023/09/18 03:36:54;;;;;;;10.23;5.90;;;;;;;;;;6274722;22;20662;-66
2023/09/18 03:39:24;;;;;;;12.77;7.23;;;;;;;;;;6274177;22;20661;-67
2023/09/18 03:41:52;;;;;;;11.50;6.47;;;;;;;;;;6247052;22;20657;-66
2023/09/18 03:44:21;;;;;;;16.10;5.90;;;;;;;;;;6273186;22;20661;-67
2023/09/18 03:46:49;;;;;;;15.20;5.90;;;;;;;;;;6247085;22;20669;-67
2023/09/18 03:49:17;;;;;;;11.13;5.40;;;;;;;;;;6246554;22;20695;-68
2023/09/18 03:51:46;;;;;;;10.40;5.70;;;;;;;;;;6246950;22;20657;-67
2023/09/18 03:54:14;;;;;;;14.80;6.23;;;;;;;;;;6245677;22;20661;-67
2023/09/18 03:56:45;;;;;;;8.33;5.00;;;;;;;;;;6273961;22;20703;-67
2023/09/18 03:59:14;;;;;;;10.27;4.63;;;;;;;;;;6246055;22;20668;-67
2023/09/18 04:01:42;;;;;;;13.53;5.33;;;;;;;;;;6271912;22;21310;-67
2023/09/18 04:04:10;;;;;;;10.60;4.77;;;;;;;;;;6271895;22;20661;-67
2023/09/18 04:06:39;;;;;;;14.50;5.17;;;;;;;;;;6272892;22;21223;-67
2023/09/18 04:09:08;;;;;;;14.67;5.37;;;;;;;;;;6246120;22;21259;-67
2023/09/18 04:11:36;;;;;;;8.00;4.83;;;;;;;;;;6272475;22;20724;-66
2023/09/18 04:14:06;;;;;;;17.83;5.77;;;;;;;;;;6246575;22;21022;-67
2023/09/18 04:16:37;;;;;;;7.77;5.00;;;;;;;;;;6273035;22;21224;-67
2023/09/18 04:19:05;;;;;;;11.23;5.70;;;;;;;;;;6246926;22;21097;-67
2023/09/18 04:21:34;;;;;;;10.77;5.03;;;;;;;;;;6273064;22;20693;-67
2023/09/18 04:24:02;;;;;;;13.70;5.60;;;;;;;;;;6273008;22;20654;-67
2023/09/18 04:26:30;;;;;;;8.50;5.13;;;;;;;;;;6273155;22;20980;-67
2023/09/18 04:28:59;;;;;;;13.90;5.63;;;;;;;;;;6246087;22;20652;-67
2023/09/18 04:31:29;;;;;;;7.73;4.03;;;;;;;;;;6272958;22;20715;-68
2023/09/18 04:33:59;;;;;;;11.20;5.80;;;;;;;;;;6246195;22;20621;-67
2023/09/18 04:36:28;;;;;;;12.70;5.07;;;;;;;;;;6275571;22;20680;-67
2023/09/18 04:38:56;;;;;;;10.80;4.33;;;;;;;;;;6274437;22;21101;-67
2023/09/18 04:41:24;;;;;;;9.97;5.90;;;;;;;;;;6248261;22;20692;-67
2023/09/18 04:43:55;;;;;;;13.10;4.83;;;;;;;;;;6246988;22;20613;-67
2023/09/18 04:46:24;;;;;;;5.87;4.20;;;;;;;;;;6274896;22;21179;-67
2023/09/18 04:48:54;;;;;;;24.13;5.43;;;;;;;;;;6247477;22;20661;-67
2023/09/18 04:51:22;;;;;;;10.83;4.97;;;;;;;;;;6248516;22;21188;-67
2023/09/18 04:53:51;;;;;;;5.83;4.50;;;;;;;;;;6247639;22;21181;-67
2023/09/18 04:56:20;;;;;;;9.33;4.83;;;;;;;;;;6248655;22;20665;-67
2023/09/18 04:58:48;;;;;;;6.10;3.90;;;;;;;;;;6275260;22;20664;-66
2023/09/18 05:01:17;;;;;;;6.60;3.90;;;;;;;;;;6274652;22;20747;-67
2023/09/18 05:03:45;;;;;;;7.50;4.80;;;;;;;;;;6221670;22;21295;-67
2023/09/18 05:06:15;;;;;;;7.33;4.30;;;;;;;;;;6274289;22;20656;-67
2023/09/18 05:08:44;;;;;;;13.13;4.50;;;;;;;;;;6247072;22;20672;-67
2023/09/18 05:11:12;;;;;;;6.77;4.13;;;;;;;;;;6273738;22;20752;-67
2023/09/18 05:13:40;;;;;;;6.37;4.40;;;;;;;;;;6274482;22;20637;-67
2023/09/18 05:16:08;;;;;;;8.50;5.00;;;;;;;;;;6274874;22;20653;-67
2023/09/18 05:18:37;;;;;;;8.37;4.43;;;;;;;;;;6274398;22;20657;-67
2023/09/18 05:21:06;;;;;;;10.43;4.53;;;;;;;;;;6274829;22;20689;-67
2023/09/18 05:23:35;;;;;;;8.67;5.40;;;;;;;;;;6247363;22;20657;-67
2023/09/18 05:26:03;;;;;;;7.13;4.40;;;;;;;;;;6274851;22;20681;-67
2023/09/18 05:28:32;;;;;;;14.37;5.10;;;;;;;;;;6274097;22;20992;-67
2023/09/18 05:31:00;;;;;;;9.07;5.90;;;;;;;;;;6274621;22;20657;-67
2023/09/18 05:33:28;;;;;;;6.63;5.70;;;;;;;;;;6275112;22;20704;-67
2023/09/18 05:35:57;;;;;;;10.90;5.63;;;;;;;;;;6273944;22;20660;-67
2023/09/18 05:38:26;;;;;;;11.87;5.77;;;;;;;;;;6248346;22;21188;-67
2023/09/18 05:40:55;;;;;;;9.87;5.50;;;;;;;;;;6273718;22;20702;-67
2023/09/18 05:43:24;;;;;;;10.73;5.37;;;;;;;;;;6248310;22;20684;-67
2023/09/18 05:45:52;;;;;;;15.37;6.53;;;;;;;;;;6273316;22;20653;-67
2023/09/18 05:48:20;;;;;;;10.50;5.80;;;;;;;;;;6275192;22;21205;-67
2023/09/18 05:50:49;;;;;;;8.70;5.80;;;;;;;;;;6273962;22;20656;-67
2023/09/18 05:53:17;;;;;;;12.30;6.40;;;;;;;;;;6222426;22;20639;-67
2023/09/18 05:55:45;;;;;;;14.43;5.87;;;;;;;;;;6247641;22;20665;-67
2023/09/18 05:58:15;;;;;;;9.53;5.00;;;;;;;;;;6274781;22;21201;-67
2023/09/18 06:00:43;;;;;;;12.33;5.97;;;;;;;;;;6246286;22;20740;-67
2023/09/18 06:03:12;;;;;;;19.67;6.57;;;;;;;;;;6273037;22;20973;-67
2023/09/18 06:05:40;;;;;;;15.30;5.70;;;;;;;;;;6273191;22;20719;-67
2023/09/18 06:08:08;;;;;;;9.93;5.47;;;;;;;;;;6273885;22;20653;-67
2023/09/18 06:10:37;;;;;;;11.10;5.87;;;;;;;;;;6273682;22;20711;-67
2023/09/18 06:13:05;;;;;;;9.10;4.87;;;;;;;;;;6272803;22;20621;-67
2023/09/18 06:15:35;;;;;;;7.93;4.70;;;;;;;;;;6273899;22;20983;-69
2023/09/18 06:18:04;;;;;;;5.97;4.30;;;;;;;;;;6272991;22;20676;-69
2023/09/18 06:20:32;;;;;;;8.30;3.73;;;;;;;;;;6274158;22;20669;-69
2023/09/18 06:23:00;;;;;;;10.40;4.20;;;;;;;;;;6272965;22;20653;-68
2023/09/18 06:25:28;;;;;;;12.40;3.93;;;;;;;;;;6273455;22;21051;-69
2023/09/18 06:27:57;;;;;;;11.40;4.60;;;;;;;;;;6271246;22;20656;-67
2023/09/18 06:30:25;;;;;;;4.73;3.50;;;;;;;;;;6274340;22;20955;-68
2023/09/18 06:32:54;;;;;;;4.80;2.80;;;;;;;;;;6273419;22;21220;-69
2023/09/18 06:35:23;;;;;;;7.17;3.47;;;;;;;;;;6273228;22;20977;-69
2023/09/18 06:37:51;;;;;;;4.97;2.80;;;;;;;;;;6274314;22;20641;-67
2023/09/18 06:40:19;;;;;;;9.23;3.60;;;;;;;;;;6272104;22;20673;-67
2023/09/18 06:42:48;;;;;;;7.43;3.00;;;;;;;;;;6273931;22;20622;-67
2023/09/18 06:45:16;;;;;;;6.53;2.53;;;;;;;;;;6273747;22;20669;-67
2023/09/18 06:47:44;;;;;;;8.70;3.67;;;;;;;;;;6245798;22;20723;-68
2023/09/18 06:50:13;;;;;;;6.73;3.00;;;;;;;;;;6271400;22;20652;-67
2023/09/18 06:52:42;;;;;;;5.00;2.87;;;;;;;;;;6272433;22;20661;-68
2023/09/18 06:55:10;;;;;;;7.90;3.80;;;;;;;;;;6272132;22;20661;-68
2023/09/18 06:57:40;;;;;;;8.00;3.17;;;;;;;;;;6272826;22;20661;-67
2023/09/18 07:00:09;;;;;;;2.73;2.30;;;;;;;;;;6272895;22;20660;-68
2023/09/18 07:02:38;;;;;;;5.47;2.80;;;;;;;;;;6271829;22;21264;-68
2023/09/18 07:05:06;;;;;;;6.73;2.60;;;;;;;;;;6271434;22;21147;-68
2023/09/18 07:07:36;;;;;;;7.70;3.00;;;;;;;;;;6273156;22;20680;-69
2023/09/18 07:10:04;;;;;;;4.73;2.80;;;;;;;;;;6246047;22;20644;-68
2023/09/18 07:12:32;;;;;;;7.43;3.10;;;;;;;;;;6272243;22;20752;-68
2023/09/18 07:15:03;;;;;;;5.50;2.90;;;;;;;;;;6272029;22;20656;-67
2023/09/18 07:17:31;;;;;;;4.97;3.10;;;;;;;;;;6272298;22;20638;-68
2023/09/18 07:20:00;;;;;;;7.60;2.57;;;;;;;;;;6271720;22;20669;-67
2023/09/18 07:22:28;;;;;;;7.17;2.00;;;;;;;;;;6272070;22;20697;-68
2023/09/18 07:24:57;;;;;;;6.13;2.67;;;;;;;;;;6271852;22;21279;-67
2023/09/18 07:27:26;;;;;;;4.87;2.67;;;;;;;;;;6273562;22;20752;-69
2023/09/18 07:29:57;;;;;;;7.57;2.60;;;;;;;;;;6272287;22;20656;-68
2023/09/18 07:32:27;;;;;;;11.23;2.40;;;;;;;;;;6273339;22;20629;-68
2023/09/18 07:34:56;;;;;;;3.27;2.37;;;;;;;;;;6272443;22;20684;-70
2023/09/18 07:37:24;;;;;;;6.63;2.80;;;;;;;;;;6273503;22;20694;-68
2023/09/18 07:39:52;;;;;;;3.43;2.20;;;;;;;;;;6271928;22;20672;-69
2023/09/18 07:42:25;;;;;;;5.33;2.00;;;;;;;;;;6272731;22;20696;-68
2023/09/18 07:44:53;;;;;;;4.73;2.07;;;;;;;;;;6272679;22;20625;-68
2023/09/18 07:47:22;;;;;;;5.10;2.00;;;;;;;;;;6273065;22;20708;-68
2023/09/18 07:49:50;;;;;;;2.33;2.13;;;;;;;;;;6271884;22;20660;-68
2023/09/18 07:52:19;;;;;;;2.60;2.13;;;;;;;;;;6273228;22;20653;-69
2023/09/18 07:54:47;;;;;;;5.33;2.30;;;;;;;;;;6272617;22;20724;-68
2023/09/18 07:57:15;;;;;;;6.57;2.00;;;;;;;;;;6273077;22;20668;-69
2023/09/18 07:59:46;;;;;;;5.73;1.90;;;;;;;;;;6271798;22;20731;-69
2023/09/18 08:02:14;;;;;;;1.77;1.67;;;;;;;;;;6272232;22;20664;-69
2023/09/18 08:04:43;;;;;;;4.87;1.63;;;;;;;;;;6271754;22;20989;-69
2023/09/18 08:07:12;;;;;;;3.00;1.70;;;;;;;;;;6271942;22;20661;-69
2023/09/18 08:09:40;;;;;;;2.07;1.40;;;;;;;;;;6246432;22;20660;-69
2023/09/18 08:12:09;;;;;;;2.40;1.83;;;;;;;;;;6272914;22;20711;-69
2023/09/18 08:14:37;;;;;;;2.87;1.40;;;;;;;;;;6273857;22;20649;-68
2023/09/18 08:17:07;;;;;;;2.10;1.60;;;;;;;;;;6247140;22;20648;-68
2023/09/18 08:19:37;;;;;;;4.80;1.30;;;;;;;;;;6273917;22;20731;-68
2023/09/18 08:22:05;;;;;;;3.77;2.03;;;;;;;;;;6273927;22;20684;-68
2023/09/18 08:24:33;;;;;;;1.93;1.10;;;;;;;;;;6274779;22;20652;-69
2023/09/18 08:27:03;;;;;;;5.10;1.47;;;;;;;;;;6247432;22;20692;-69
2023/09/18 08:29:31;;;;;;;4.20;1.23;;;;;;;;;;6272668;22;21221;-69
2023/09/18 08:31:59;;;;;;;2.30;1.40;;;;;;;;;;6274313;22;20574;-68
2023/09/18 08:34:29;;;;;;;4.27;1.70;;;;;;;;;;6246928;22;20715;-68
2023/09/18 08:36:57;;;;;;;5.20;2.07;;;;;;;;;;6274001;22;20969;-68
2023/09/18 08:39:25;;;;;;;3.63;1.93;;;;;;;;;;6274579;22;20661;-69
2023/09/18 08:41:56;;;;;;;3.43;1.27;;;;;;;;;;6275269;22;20656;-68
2023/09/18 08:44:27;;;;;;;3.97;1.40;;;;;;;;;;6274192;22;21195;-69
2023/09/18 08:46:55;;;;;;;8.67;1.30;;;;;;;;;;6275011;22;20652;-68
2023/09/18 08:49:24;;;;;;;2.30;1.43;;;;;;;;;;6273516;22;20600;-69
2023/09/18 08:51:56;;;;;;;5.93;1.73;;;;;;;;;;6274397;22;20652;-70
2023/09/18 08:54:24;;;;;;;7.80;1.50;;;;;;;;;;6273804;22;20621;-68
2023/09/18 08:56:53;;;;;;;1.37;1.27;;;;;;;;;;6247972;22;21179;-69
2023/09/18 08:59:22;;;;;;;6.30;1.50;;;;;;;;;;6273740;22;20932;-67
2023/09/18 09:01:50;;;;;;;2.03;1.20;;;;;;;;;;6273403;22;20652;-68
2023/09/18 09:04:19;;;;;;;2.10;1.40;;;;;;;;;;6272666;22;20761;-67
2023/09/18 09:06:47;;;;;;;5.10;1.80;;;;;;;;;;6273066;22;20653;-67
2023/09/18 09:09:19;;;;;;;3.50;1.20;;;;;;;;;;6246480;22;20625;-67
2023/09/18 09:11:50;;;;;;;5.77;1.87;;;;;;;;;;6273773;22;20804;-66
2023/09/18 09:14:21;;;;;;;1.63;1.53;;;;;;;;;;6273408;22;20641;-67
2023/09/18 09:16:50;;;;;;;5.80;1.80;;;;;;;;;;6274718;22;20621;-67
2023/09/18 09:19:18;;;;;;;1.57;1.47;;;;;;;;;;6272787;22;20668;-67
2023/09/18 09:21:48;;;;;;;4.10;1.27;;;;;;;;;;6274706;22;20660;-67
2023/09/18 09:24:18;;;;;;;2.87;1.50;;;;;;;;;;6273132;22;20700;-66
2023/09/18 09:26:58;;;;;;;3.60;2.17;;;;;;;;;;6273790;22;21184;-66
2023/09/18 09:29:27;;;;;;;3.77;1.37;;;;;;;;;;6272983;22;20629;-66
2023/09/18 09:31:56;;;;;;;4.00;2.27;;;;;;;;;;6219773;22;21237;-67
2023/09/18 09:34:28;;;;;;;6.23;2.10;;;;;;;;;;6273264;22;20654;-67
2023/09/18 09:36:57;;;;;;;3.33;1.73;;;;;;;;;;6274713;22;20649;-67
2023/09/18 09:39:27;;;;;;;8.57;2.17;;;;;;;;;;6273764;22;20724;-68
2023/09/18 09:41:55;;;;;;;2.07;1.30;;;;;;;;;;6273485;22;21002;-66
2023/09/18 09:44:24;;;;;;;4.83;1.60;;;;;;;;;;6272812;22;20744;-66
2023/09/18 09:46:52;;;;;;;4.37;1.30;;;;;;;;;;6274357;22;21195;-67
2023/09/18 09:49:23;;;;;;;2.10;1.90;;;;;;;;;;6273358;22;20712;-67
2023/09/18 09:51:51;;;;;;;3.00;1.60;;;;;;;;;;6247351;22;20924;-66
2023/09/18 09:54:34;;;;;;;2.30;1.67;;;;;;;;;;6273986;22;20707;-67
2023/09/18 09:57:05;;;;;;;4.37;1.70;;;;;;;;;;6273682;22;20633;-67
2023/09/18 09:59:35;;;;;;;4.50;1.50;;;;;;;;;;6247592;22;20613;-69
2023/09/18 10:02:03;;;;;;;2.70;1.33;;;;;;;;;;6246910;22;20980;-69
2023/09/18 10:04:33;;;;;;;4.37;1.77;;;;;;;;;;6273150;22;20709;-69
2023/09/18 10:07:07;;;;;;;3.77;1.90;;;;;;;;;;6273751;22;20658;-69
2023/09/18 10:09:36;;;;;;;4.73;1.50;;;;;;;;;;6274026;22;21157;-69
2023/09/18 10:12:11;;;;;;;6.93;1.60;;;;;;;;;;6272944;22;20701;-70
2023/09/18 10:14:42;;;;;;;3.80;1.50;;;;;;;;;;6273199;22;20620;-69
2023/09/18 10:17:13;;;;;;;3.43;1.60;;;;;;;;;;6273129;22;20605;-70
2023/09/18 10:19:46;;;;;;;4.93;1.47;;;;;;;;;;6273618;22;20605;-69
2023/09/18 10:22:22;;;;;;;4.37;1.70;;;;;;;;;;6274470;22;20590;-69
2023/09/18 10:24:52;;;;;;;7.27;2.13;;;;;;;;;;6276233;22;20698;-69
2023/09/18 10:27:24;;;;;;;4.40;2.13;;;;;;;;;;6273796;22;20633;-70
2023/09/18 10:29:54;;;;;;;4.20;1.50;;;;;;;;;;6273351;22;20661;-69
2023/09/18 10:32:23;;;;;;;6.73;1.57;;;;;;;;;;6274989;22;20621;-69
2023/09/18 10:34:51;;;;;;;2.63;1.93;;;;;;;;;;6247676;22;20656;-69
2023/09/18 10:37:20;;;;;;;3.83;1.47;;;;;;;;;;6274876;22;20999;-69
2023/09/18 10:39:50;;;;;;;5.30;1.60;;;;;;;;;;6273978;22;20669;-69
2023/09/18 10:42:18;;;;;;;3.77;1.50;;;;;;;;;;6247328;22;20649;-69
2023/09/18 10:44:48;;;;;;;3.00;1.30;;;;;;;;;;6274049;22;20693;-69
2023/09/18 10:47:17;;;;;;;4.07;1.47;;;;;;;;;;6246909;22;20652;-69
2023/09/18 10:49:46;;;;;;;3.43;1.60;;;;;;;;;;6273892;22;20686;-69
2023/09/18 10:52:15;;;;;;;2.27;1.73;;;;;;;;;;6274100;22;20669;-69
2023/09/18 10:54:43;;;;;;;3.67;1.30;;;;;;;;;;6249850;22;20665;-69
2023/09/18 10:57:11;;;;;;;1.33;1.23;;;;;;;;;;6274704;22;21188;-69
2023/09/18 10:59:45;;;;;;;3.00;1.20;;;;;;;;;;6246230;22;20673;-69
2023/09/18 11:02:17;;;;;;;4.47;1.60;;;;;;;;;;6271233;22;20621;-69
2023/09/18 11:04:46;;;;;;;2.43;1.63;;;;;;;;;;6271587;22;20676;-69
2023/09/18 11:07:21;;;;;;;4.00;1.60;;;;;;;;;;6272187;22;20979;-68
2023/09/18 11:09:50;;;;;;;2.60;1.93;;;;;;;;;;6274461;22;20641;-69
2023/09/18 11:12:19;;;;;;;8.33;1.63;;;;;;;;;;6272311;22;21248;-69
2023/09/18 11:14:49;;;;;;;2.87;2.03;;;;;;;;;;6274296;22;20653;-69
2023/09/18 11:17:33;;;;;;;1.40;1.10;;;;;;;;;;6273469;22;20613;-68
2023/09/18 11:20:08;;;;;;;1.83;1.43;;;;;;;;;;6273511;22;20625;-68
2023/09/18 11:22:37;;;;;;;3.70;1.43;;;;;;;;;;6273125;22;20617;-69
2023/09/18 11:25:24;;;;;;;5.40;2.20;;;;;;;;;;6273427;22;21317;-68
2023/09/18 11:27:55;;;;;;;2.27;1.97;;;;;;;;;;6273477;22;20630;-66
2023/09/18 11:30:24;;;;;;;4.40;1.87;;;;;;;;;;6247930;22;20676;-66
2023/09/18 11:32:53;;;;;;;2.80;1.70;;;;;;;;;;6274095;22;20674;-66
2023/09/18 11:35:22;;;;;;;4.20;1.90;;;;;;;;;;6274096;22;20642;-66
2023/09/18 11:38:05;;;;;;;2.73;1.33;;;;;;;;;;6273210;22;20962;-66
2023/09/18 11:40:38;;;;;;;4.63;1.73;;;;;;;;;;6274298;22;20996;-66
2023/09/18 11:43:25;;;;;;;3.30;1.90;;;;;;;;;;6273953;22;20618;-67
2023/09/18 11:45:55;;;;;;;3.90;1.50;;;;;;;;;;6276405;22;20653;-66
2023/09/18 11:48:27;;;;;;;2.83;1.90;;;;;;;;;;6275931;22;20673;-66
2023/09/18 11:50:57;;;;;;;3.60;1.90;;;;;;;;;;6276294;22;20620;-67
2023/09/18 11:53:25;;;;;;;3.10;2.07;;;;;;;;;;6276352;22;20660;-67
2023/09/18 11:55:54;;;;;;;2.90;1.40;;;;;;;;;;6276382;22;20656;-66
2023/09/18 11:58:23;;;;;;;2.70;2.07;;;;;;;;;;6275856;22;20686;-66
2023/09/18 12:00:52;;;;;;;4.90;1.93;;;;;;;;;;6275760;22;21196;-67
2023/09/18 12:03:25;;;;;;;2.10;1.70;;;;;;;;;;6274603;22;20719;-66
2023/09/18 12:05:57;;;;;;;5.23;2.17;;;;;;;;;;6275031;22;20664;-66
2023/09/18 12:08:26;;;;;;;2.17;2.00;;;;;;;;;;6249638;22;20628;-66
2023/09/18 12:10:55;;;;;;;2.40;1.97;;;;;;;;;;6274496;22;21211;-67
2023/09/18 12:13:23;;;;;;;4.23;2.03;;;;;;;;;;6275342;22;20692;-67
2023/09/18 12:15:52;;;;;;;4.07;2.20;;;;;;;;;;6275297;22;20669;-66
2023/09/18 12:18:22;;;;;;;14.60;2.70;;;;;;;;;;6275649;22;20665;-66
2023/09/18 12:20:51;;;;;;;2.40;2.20;;;;;;;;;;6247715;22;20938;-67
2023/09/18 12:23:21;;;;;;;3.67;2.10;;;;;;;;;;6275393;22;21195;-67
2023/09/18 12:25:49;;;;;;;5.40;2.10;;;;;;;;;;6274596;22;20662;-68
2023/09/18 12:28:18;;;;;;;2.93;2.33;;;;;;;;;;6275450;22;20965;-68
2023/09/18 12:30:47;;;;;;;3.20;1.87;;;;;;;;;;6275193;22;20660;-68
2023/09/18 12:33:15;;;;;;;7.27;2.63;;;;;;;;;;6275121;22;20676;-68
2023/09/18 12:35:43;;;;;;;5.57;1.53;;;;;;;;;;6274621;22;20692;-67
2023/09/18 12:38:16;;;;;;;1.90;1.80;;;;;;;;;;6222722;22;20661;-67
2023/09/18 12:40:46;;;;;;;4.97;2.20;;;;;;;;;;6275387;22;20625;-66
2023/09/18 12:43:16;;;;;;;4.43;2.00;;;;;;;;;;6274233;22;20657;-66
2023/09/18 12:45:45;;;;;;;2.70;1.77;;;;;;;;;;6273954;22;20685;-67
2023/09/18 12:48:14;;;;;;;2.70;2.40;;;;;;;;;;6274335;22;21229;-67
2023/09/18 12:50:42;;;;;;;6.47;2.50;;;;;;;;;;6275690;22;20684;-67
2023/09/18 12:53:11;;;;;;;2.67;2.47;;;;;;;;;;6275425;22;20653;-67
2023/09/18 12:55:41;;;;;;;3.40;2.50;;;;;;;;;;6247528;22;20657;-67
2023/09/18 12:58:13;;;;;;;3.70;2.33;;;;;;;;;;6274986;22;20648;-67
2023/09/18 13:00:46;;;;;;;4.60;2.63;;;;;;;;;;6274388;22;20675;-68
2023/09/18 13:03:15;;;;;;;4.43;2.57;;;;;;;;;;6273168;22;21239;-67
2023/09/18 13:05:43;;;;;;;4.17;2.70;;;;;;;;;;6274185;22;20701;-67
2023/09/18 13:08:12;;;;;;;2.83;2.50;;;;;;;;;;6275233;22;20656;-67
2023/09/18 13:10:45;;;;;;;5.40;2.77;;;;;;;;;;6275653;22;20716;-66
2023/09/18 13:13:21;;;;;;;3.93;2.80;;;;;;;;;;6274086;22;21064;-66
2023/09/18 13:15:50;;;;;;;3.57;2.80;;;;;;;;;;6274972;22;20688;-67
2023/09/18 13:18:19;;;;;;;3.27;2.97;;;;;;;;;;6274871;22;20960;-67
2023/09/18 13:20:47;;;;;;;3.13;2.80;;;;;;;;;;6274904;22;20665;-67
2023/09/18 13:23:15;;;;;;;7.70;3.47;;;;;;;;;;6274532;22;21259;-68
2023/09/18 13:25:44;;;;;;;3.23;2.93;;;;;;;;;;6275056;22;20692;-67
2023/09/18 13:28:13;;;;;;;4.60;3.10;;;;;;;;;;6248317;22;20637;-69
2023/09/18 13:30:44;;;;;;;3.03;2.47;;;;;;;;;;6274710;22;20788;-68
2023/09/18 13:33:12;;;;;;;5.17;3.10;;;;;;;;;;6275267;22;20610;-67
2023/09/18 13:35:41;;;;;;;4.23;3.83;;;;;;;;;;6274758;22;21002;-68
2023/09/18 13:38:10;;;;;;;3.67;3.40;;;;;;;;;;6276110;22;20633;-68
2023/09/18 13:40:39;;;;;;;4.70;4.40;;;;;;;;;;6276090;22;20661;-68
2023/09/18 13:43:07;;;;;;;4.30;4.10;;;;;;;;;;6274146;22;20641;-66
2023/09/18 13:45:36;;;;;;;5.00;4.60;;;;;;;;;;6273044;22;20706;-66
2023/09/18 13:48:05;;;;;;;5.40;4.83;;;;;;;;;;6272662;22;20649;-68
2023/09/18 13:50:34;;;;;;;5.30;5.00;;;;;;;;;;6273135;22;20665;-67
2023/09/18 13:53:03;;;;;;;5.90;5.50;;;;;;;;;;6219709;22;20733;-67
2023/09/18 13:55:31;;;;;;;5.70;5.30;;;;;;;;;;6273958;22;21024;-67
2023/09/18 13:58:02;;;;;;;5.47;5.17;;;;;;;;;;6273422;22;20656;-67
2023/09/18 14:00:31;;;;;;;5.67;5.27;;;;;;;;;;6248074;22;20684;-68
2023/09/18 14:02:59;;;;;;;5.90;5.30;;;;;;;;;;6269965;22;21243;-67
2023/09/18 14:05:29;;;;;;;5.47;5.27;;;;;;;;;;6273137;22;21276;-67
2023/09/18 14:07:59;;;;;;;5.67;5.33;;;;;;;;;;6246599;22;20617;-66
2023/09/18 14:10:28;;;;;;;5.67;5.30;;;;;;;;;;6274157;22;20661;-66
2023/09/18 14:12:57;;;;;;;6.10;5.60;;;;;;;;;;6274000;22;20741;-66
2023/09/18 14:15:25;;;;;;;5.63;5.43;;;;;;;;;;6274215;22;20665;-65
2023/09/18 14:18:13;;;;;;;5.20;5.00;;;;;;;;;;6272800;22;20558;-65
2023/09/18 14:20:43;;;;;;;6.00;5.50;;;;;;;;;;6274530;22;20723;-66
2023/09/18 14:23:11;;;;;;;6.20;5.77;;;;;;;;;;6274114;22;20665;-66
2023/09/18 14:25:41;;;;;;;6.33;5.73;;;;;;;;;;6273968;22;20700;-66
2023/09/18 14:28:09;;;;;;;5.77;5.37;;;;;;;;;;6274415;22;20649;-66
2023/09/18 14:30:37;;;;;;;6.63;5.93;;;;;;;;;;6274855;22;20703;-66
2023/09/18 14:33:07;;;;;;;6.77;5.57;;;;;;;;;;6274879;22;20641;-66
2023/09/18 14:35:36;;;;;;;6.97;5.40;;;;;;;;;;6274082;22;20715;-66
2023/09/18 14:38:06;;;;;;;5.60;5.40;;;;;;;;;;6274076;22;20977;-66
2023/09/18 14:40:34;;;;;;;5.77;5.37;;;;;;;;;;6274141;22;20661;-66
2023/09/18 14:43:05;;;;;;;6.23;5.83;;;;;;;;;;6274435;22;20640;-65
2023/09/18 14:45:34;;;;;;;7.33;5.37;;;;;;;;;;6274614;22;20704;-65
2023/09/18 14:48:03;;;;;;;5.77;5.40;;;;;;;;;;6274072;22;20657;-67
2023/09/18 14:50:31;;;;;;;5.73;5.30;;;;;;;;;;6274280;22;20676;-67
2023/09/18 14:52:59;;;;;;;5.53;5.10;;;;;;;;;;6274530;22;20653;-67